sensor_id;sensor_type;location;lat;lon;timestamp;pressure;altitude;pressure_sealevel;temperature;humidity
36378;BME280;22402;42.746;23.606;2023-03-23T07:26:14;93567.25;;;9.58;100.00
36378;BME280;22402;42.746;23.606;2023-03-23T07:28:39;93558.47;;;9.59;100.00
36378;BME280;22402;42.746;23.606;2023-03-23T07:31:04;93558.47;;;9.69;100.00
36378;BME280;22402;42.746;23.606;2023-03-23T07:33:29;93559.88;;;9.82;100.00
36378;BME280;22402;42.746;23.606;2023-03-23T07:35:55;93562.06;;;9.97;100.00
36378;BME280;22402;42.746;23.606;2023-03-23T07:38:20;93564.22;;;10.11;100.00
36378;BME280;22402;42.746;23.606;2023-03-23T07:40:45;93569.44;;;10.21;100.00
36378;BME280;22402;42.746;23.606;2023-03-23T07:43:11;93561.34;;;10.34;100.00
36378;BME280;22402;42.746;23.606;2023-03-23T07:45:36;93568.88;;;10.46;100.00
36378;BME280;22402;42.746;23.606;2023-03-23T08:00:07;93568.50;;;11.44;99.10
36378;BME280;22402;42.746;23.606;2023-03-23T08:02:33;93576.00;;;11.74;97.90
36378;BME280;22402;42.746;23.606;2023-03-23T08:04:58;93573.19;;;12.03;94.56
36378;BME280;22402;42.746;23.606;2023-03-23T08:07:23;93578.63;;;12.28;93.70
36378;BME280;22402;42.746;23.606;2023-03-23T08:09:49;93579.44;;;12.46;91.59
36378;BME280;22402;42.746;23.606;2023-03-23T08:12:14;93590.53;;;12.66;91.03
36378;BME280;22402;42.746;23.606;2023-03-23T08:14:39;93583.72;;;12.73;89.54
36378;BME280;22402;42.746;23.606;2023-03-23T08:17:04;93596.13;;;12.71;87.20
36378;BME280;22402;42.746;23.606;2023-03-23T08:19:30;93589.75;;;12.74;87.38
36378;BME280;22402;42.746;23.606;2023-03-23T08:21:55;93586.97;;;12.75;87.73
36378;BME280;22402;42.746;23.606;2023-03-23T08:24:20;93592.75;;;12.79;87.70
36378;BME280;22402;42.746;23.606;2023-03-23T08:26:45;93586.03;;;12.76;87.06
36378;BME280;22402;42.746;23.606;2023-03-23T08:29:11;93596.94;;;12.72;87.03
36378;BME280;22402;42.746;23.606;2023-03-23T08:31:37;93598.38;;;12.66;86.57
36378;BME280;22402;42.746;23.606;2023-03-23T08:34:03;93590.63;;;12.57;85.85
36378;BME280;22402;42.746;23.606;2023-03-23T08:36:28;93591.38;;;12.49;84.94
36378;BME280;22402;42.746;23.606;2023-03-23T08:38:53;93592.28;;;12.40;84.63
36378;BME280;22402;42.746;23.606;2023-03-23T09:46:06;93562.00;;;13.50;75.23
36378;BME280;22402;42.746;23.606;2023-03-23T09:51:04;93565.66;;;13.57;73.90
36378;BME280;22402;42.746;23.606;2023-03-23T09:53:34;93564.66;;;13.58;73.26
36378;BME280;22402;42.746;23.606;2023-03-23T09:56:02;93561.91;;;13.59;72.95
36378;BME280;22402;42.746;23.606;2023-03-23T09:58:31;93562.22;;;13.64;73.53
36378;BME280;22402;42.746;23.606;2023-03-23T10:01:08;93560.44;;;13.73;74.09
36378;BME280;22402;42.746;23.606;2023-03-23T10:03:38;93561.16;;;14.08;72.90
36378;BME280;22402;42.746;23.606;2023-03-23T10:06:04;93560.53;;;14.55;72.92
36378;BME280;22402;42.746;23.606;2023-03-23T10:08:30;93550.91;;;15.11;71.85
36378;BME280;22402;42.746;23.606;2023-03-23T10:15:50;93548.66;;;15.39;66.67
36378;BME280;22402;42.746;23.606;2023-03-23T10:18:30;93552.47;;;15.28;67.09
36378;BME280;22402;42.746;23.606;2023-03-23T10:20:57;93545.97;;;15.16;66.74
36378;BME280;22402;42.746;23.606;2023-03-23T10:26:13;93542.06;;;14.96;67.33
36378;BME280;22402;42.746;23.606;2023-03-23T10:28:43;93541.94;;;14.89;66.97
36378;BME280;22402;42.746;23.606;2023-03-23T10:31:13;93537.13;;;15.17;68.13
36378;BME280;22402;42.746;23.606;2023-03-23T10:33:40;93537.56;;;15.68;65.38
36378;BME280;22402;42.746;23.606;2023-03-23T10:36:49;93534.06;;;15.99;64.34
36378;BME280;22402;42.746;23.606;2023-03-23T10:38:59;93524.72;;;16.20;64.40
36378;BME280;22402;42.746;23.606;2023-03-23T10:41:25;93526.00;;;16.24;61.92
36378;BME280;22402;42.746;23.606;2023-03-23T10:43:50;93529.81;;;16.21;61.70
36378;BME280;22402;42.746;23.606;2023-03-23T10:49:00;93524.47;;;16.29;60.12
36378;BME280;22402;42.746;23.606;2023-03-23T10:51:35;93522.53;;;16.46;60.33
36378;BME280;22402;42.746;23.606;2023-03-23T10:54:02;93515.88;;;16.73;61.67
36378;BME280;22402;42.746;23.606;2023-03-23T10:56:29;93520.00;;;17.05;60.39
36378;BME280;22402;42.746;23.606;2023-03-23T10:58:59;93520.09;;;17.12;59.44
36378;BME280;22402;42.746;23.606;2023-03-23T11:01:31;93523.53;;;17.13;59.24
36378;BME280;22402;42.746;23.606;2023-03-23T11:03:56;93514.81;;;17.42;59.38
36378;BME280;22402;42.746;23.606;2023-03-23T11:06:43;93515.78;;;17.56;58.42
36378;BME280;22402;42.746;23.606;2023-03-23T11:09:14;93515.78;;;17.56;54.53
36378;BME280;22402;42.746;23.606;2023-03-23T11:11:40;93509.97;;;17.45;56.27
36378;BME280;22402;42.746;23.606;2023-03-23T11:14:20;93504.25;;;17.57;55.17
36378;BME280;22402;42.746;23.606;2023-03-23T11:16:52;93502.19;;;17.37;53.81
36378;BME280;22402;42.746;23.606;2023-03-23T11:19:25;93491.47;;;17.24;54.36
36378;BME280;22402;42.746;23.606;2023-03-23T11:21:51;93495.28;;;17.36;52.35
36378;BME280;22402;42.746;23.606;2023-03-23T11:24:17;93484.22;;;17.62;52.96
36378;BME280;22402;42.746;23.606;2023-03-23T11:26:43;93480.50;;;17.93;50.84
36378;BME280;22402;42.746;23.606;2023-03-23T11:29:12;93478.81;;;18.28;52.04
36378;BME280;22402;42.746;23.606;2023-03-23T11:31:45;93470.19;;;18.69;51.15
36378;BME280;22402;42.746;23.606;2023-03-23T11:36:43;93470.13;;;19.19;49.52
36378;BME280;22402;42.746;23.606;2023-03-23T11:39:31;93472.41;;;19.28;48.92
36378;BME280;22402;42.746;23.606;2023-03-23T11:41:58;93465.78;;;19.59;49.32
36378;BME280;22402;42.746;23.606;2023-03-23T11:44:24;93472.41;;;19.90;48.42
36378;BME280;22402;42.746;23.606;2023-03-23T11:47:04;93467.16;;;20.03;47.71
36378;BME280;22402;42.746;23.606;2023-03-23T11:49:41;93470.38;;;19.85;47.68
36378;BME280;22402;42.746;23.606;2023-03-23T11:52:12;93466.59;;;19.59;47.11
36378;BME280;22402;42.746;23.606;2023-03-23T11:54:40;93463.25;;;19.31;46.19
36378;BME280;22402;42.746;23.606;2023-03-23T11:57:08;93463.56;;;19.08;47.09
36378;BME280;22402;42.746;23.606;2023-03-23T11:59:35;93463.63;;;18.86;46.38
36378;BME280;22402;42.746;23.606;2023-03-23T12:02:17;93455.94;;;18.63;45.81
36378;BME280;22402;42.746;23.606;2023-03-23T12:12:23;93450.56;;;18.01;49.78
36378;BME280;22402;42.746;23.606;2023-03-23T12:15:12;93452.47;;;17.85;49.07
36378;BME280;22402;42.746;23.606;2023-03-23T12:22:56;93449.13;;;18.76;48.14
36378;BME280;22402;42.746;23.606;2023-03-23T12:30:53;93440.03;;;19.20;46.34
36378;BME280;22402;42.746;23.606;2023-03-23T12:51:40;93440.75;;;19.48;46.42
36378;BME280;22402;42.746;23.606;2023-03-23T13:04:44;93428.56;;;18.71;47.79
36378;BME280;22402;42.746;23.606;2023-03-23T13:07:12;93418.25;;;18.76;46.45
36378;BME280;22402;42.746;23.606;2023-03-23T13:12:10;93426.63;;;18.52;48.67
36378;BME280;22402;42.746;23.606;2023-03-23T13:24:55;93414.38;;;18.16;48.91
36378;BME280;22402;42.746;23.606;2023-03-23T13:27:27;93421.94;;;17.97;47.57
36378;BME280;22402;42.746;23.606;2023-03-23T13:29:54;93428.81;;;17.77;48.74
36378;BME280;22402;42.746;23.606;2023-03-23T13:32:19;93420.97;;;17.62;50.15
36378;BME280;22402;42.746;23.606;2023-03-23T13:34:46;93423.91;;;17.74;51.00
36378;BME280;22402;42.746;23.606;2023-03-23T13:37:19;93412.03;;;17.99;49.25
36378;BME280;22402;42.746;23.606;2023-03-23T13:40:11;93413.81;;;18.20;49.85
36378;BME280;22402;42.746;23.606;2023-03-23T13:42:48;93421.56;;;18.29;49.38
36378;BME280;22402;42.746;23.606;2023-03-23T13:47:44;93409.31;;;17.93;50.15
36378;BME280;22402;42.746;23.606;2023-03-23T13:50:24;93410.44;;;17.84;51.13
36378;BME280;22402;42.746;23.606;2023-03-23T13:52:52;93400.78;;;17.91;50.66
36378;BME280;22402;42.746;23.606;2023-03-23T13:57:55;93400.03;;;18.25;48.89
36378;BME280;22402;42.746;23.606;2023-03-23T14:03:01;93400.16;;;18.17;48.36
36378;BME280;22402;42.746;23.606;2023-03-23T14:07:56;93395.66;;;18.11;49.43
36378;BME280;22402;42.746;23.606;2023-03-23T14:10:22;93394.66;;;18.12;49.50
36378;BME280;22402;42.746;23.606;2023-03-23T14:12:49;93387.34;;;18.14;48.38
36378;BME280;22402;42.746;23.606;2023-03-23T14:15:15;93387.28;;;18.01;48.80
36378;BME280;22402;42.746;23.606;2023-03-23T14:17:42;93386.38;;;17.93;49.90
36378;BME280;22402;42.746;23.606;2023-03-23T14:20:09;93386.63;;;17.77;49.01
36378;BME280;22402;42.746;23.606;2023-03-23T14:22:43;93388.91;;;17.59;49.21
36378;BME280;22402;42.746;23.606;2023-03-23T14:25:12;93404.94;;;17.42;50.30
36378;BME280;22402;42.746;23.606;2023-03-23T14:27:38;93394.88;;;17.31;50.69
36378;BME280;22402;42.746;23.606;2023-03-23T14:30:05;93398.75;;;17.14;50.64
36378;BME280;22402;42.746;23.606;2023-03-23T14:32:30;93390.16;;;17.05;52.17
36378;BME280;22402;42.746;23.606;2023-03-23T14:34:56;93389.34;;;17.04;52.50
36378;BME280;22402;42.746;23.606;2023-03-23T14:37:21;93390.75;;;17.07;52.06
36378;BME280;22402;42.746;23.606;2023-03-23T14:39:51;93392.84;;;17.12;52.37
36378;BME280;22402;42.746;23.606;2023-03-23T14:42:18;93398.75;;;17.14;52.92
36378;BME280;22402;42.746;23.606;2023-03-23T14:44:48;93394.47;;;17.13;53.41
36378;BME280;22402;42.746;23.606;2023-03-23T14:47:19;93393.72;;;17.19;53.17
36378;BME280;22402;42.746;23.606;2023-03-23T14:49:44;93391.00;;;17.27;53.43
36378;BME280;22402;42.746;23.606;2023-03-23T14:52:14;93389.97;;;17.28;53.32
36378;BME280;22402;42.746;23.606;2023-03-23T14:54:39;93386.63;;;17.34;52.74
36378;BME280;22402;42.746;23.606;2023-03-23T14:57:10;93388.69;;;17.39;52.39
36378;BME280;22402;42.746;23.606;2023-03-23T14:59:36;93389.88;;;17.36;51.69
36378;BME280;22402;42.746;23.606;2023-03-23T15:02:01;93388.56;;;17.25;51.71
36378;BME280;22402;42.746;23.606;2023-03-23T15:04:27;93380.31;;;17.14;52.45
36378;BME280;22402;42.746;23.606;2023-03-23T15:06:56;93381.16;;;16.99;52.84
36378;BME280;22402;42.746;23.606;2023-03-23T15:09:23;93378.72;;;16.83;53.29
36378;BME280;22402;42.746;23.606;2023-03-23T15:11:53;93382.19;;;16.69;53.61
36378;BME280;22402;42.746;23.606;2023-03-23T15:14:25;93379.19;;;16.57;53.63
36378;BME280;22402;42.746;23.606;2023-03-23T15:16:51;93379.19;;;16.42;54.19
36378;BME280;22402;42.746;23.606;2023-03-23T15:19:18;93377.97;;;16.30;54.84
36378;BME280;22402;42.746;23.606;2023-03-23T15:21:49;93377.78;;;16.16;55.11
36378;BME280;22402;42.746;23.606;2023-03-23T15:24:25;93370.69;;;16.02;54.92
36378;BME280;22402;42.746;23.606;2023-03-23T15:26:50;93369.50;;;15.90;55.40
36378;BME280;22402;42.746;23.606;2023-03-23T15:29:20;93377.19;;;15.77;55.57
36378;BME280;22402;42.746;23.606;2023-03-23T15:31:46;93375.91;;;15.64;55.99
36378;BME280;22402;42.746;23.606;2023-03-23T15:34:15;93369.78;;;15.49;56.59
36378;BME280;22402;42.746;23.606;2023-03-23T15:36:41;93376.47;;;15.37;56.65
36378;BME280;22402;42.746;23.606;2023-03-23T15:39:08;93376.22;;;15.23;56.71
36378;BME280;22402;42.746;23.606;2023-03-23T15:41:34;93384.16;;;15.15;57.64
36378;BME280;22402;42.746;23.606;2023-03-23T15:44:11;93381.75;;;15.06;57.39
36378;BME280;22402;42.746;23.606;2023-03-23T15:46:38;93385.41;;;14.96;57.97
36378;BME280;22402;42.746;23.606;2023-03-23T15:49:12;93382.97;;;14.87;58.60
36378;BME280;22402;42.746;23.606;2023-03-23T15:51:37;93396.16;;;14.78;59.03
36378;BME280;22402;42.746;23.606;2023-03-23T15:54:03;93394.38;;;14.71;59.22
36378;BME280;22402;42.746;23.606;2023-03-23T15:56:28;93390.16;;;14.62;59.78
36378;BME280;22402;42.746;23.606;2023-03-23T15:58:53;93403.94;;;14.55;59.79
36378;BME280;22402;42.746;23.606;2023-03-23T16:01:28;93394.44;;;14.46;60.16
36378;BME280;22402;42.746;23.606;2023-03-23T16:04:11;93403.13;;;14.39;60.44
36378;BME280;22402;42.746;23.606;2023-03-23T16:06:36;93397.28;;;14.28;61.11
36378;BME280;22402;42.746;23.606;2023-03-23T16:09:03;93409.59;;;14.20;61.54
36378;BME280;22402;42.746;23.606;2023-03-23T16:11:29;93407.78;;;14.12;61.54
36378;BME280;22402;42.746;23.606;2023-03-23T16:13:54;93405.16;;;14.04;62.11
36378;BME280;22402;42.746;23.606;2023-03-23T16:16:21;93411.06;;;13.98;62.37
36378;BME280;22402;42.746;23.606;2023-03-23T16:18:47;93412.72;;;13.90;62.48
36378;BME280;22402;42.746;23.606;2023-03-23T16:21:12;93412.56;;;13.84;62.70
36378;BME280;22402;42.746;23.606;2023-03-23T16:23:37;93414.19;;;13.77;62.45
36378;BME280;22402;42.746;23.606;2023-03-23T16:26:02;93412.41;;;13.69;62.90
36378;BME280;22402;42.746;23.606;2023-03-23T16:28:28;93412.41;;;13.61;63.00
36378;BME280;22402;42.746;23.606;2023-03-23T16:30:53;93420.56;;;13.50;63.40
36378;BME280;22402;42.746;23.606;2023-03-23T16:33:18;93409.91;;;13.35;64.08
36378;BME280;22402;42.746;23.606;2023-03-23T16:35:43;93416.75;;;13.19;64.56
36378;BME280;22402;42.746;23.606;2023-03-23T16:38:10;93418.53;;;13.11;65.07
36378;BME280;22402;42.746;23.606;2023-03-23T16:40:36;93419.34;;;13.03;65.23
36378;BME280;22402;42.746;23.606;2023-03-23T16:43:02;93420.44;;;12.92;65.51
36378;BME280;22402;42.746;23.606;2023-03-23T16:45:27;93417.97;;;12.83;66.02
36378;BME280;22402;42.746;23.606;2023-03-23T16:47:52;93424.59;;;12.69;66.23
36378;BME280;22402;42.746;23.606;2023-03-23T16:50:17;93420.94;;;12.53;66.79
36378;BME280;22402;42.746;23.606;2023-03-23T16:52:44;93431.00;;;12.40;67.26
36378;BME280;22402;42.746;23.606;2023-03-23T16:55:10;93436.66;;;12.27;68.31
36378;BME280;22402;42.746;23.606;2023-03-23T16:57:35;93435.13;;;12.17;68.40
36378;BME280;22402;42.746;23.606;2023-03-23T17:00:01;93427.56;;;12.05;69.07
36378;BME280;22402;42.746;23.606;2023-03-23T17:02:26;93422.44;;;11.96;69.52
36378;BME280;22402;42.746;23.606;2023-03-23T17:04:51;93424.16;;;11.87;69.86
36378;BME280;22402;42.746;23.606;2023-03-23T17:07:17;93423.69;;;11.74;70.36
36378;BME280;22402;42.746;23.606;2023-03-23T17:09:42;93417.22;;;11.60;70.90
36378;BME280;22402;42.746;23.606;2023-03-23T17:12:08;93422.53;;;11.50;71.48
36378;BME280;22402;42.746;23.606;2023-03-23T17:14:33;93431.56;;;11.38;71.84
36378;BME280;22402;42.746;23.606;2023-03-23T17:17:01;93441.25;;;11.28;72.93
36378;BME280;22402;42.746;23.606;2023-03-23T17:19:26;93434.31;;;11.18;73.11
36378;BME280;22402;42.746;23.606;2023-03-23T17:21:52;93442.66;;;11.04;74.64
36378;BME280;22402;42.746;23.606;2023-03-23T17:24:17;93446.56;;;10.90;74.47
36378;BME280;22402;42.746;23.606;2023-03-23T17:26:42;93447.31;;;10.83;74.76
36378;BME280;22402;42.746;23.606;2023-03-23T17:29:07;93449.13;;;10.72;75.59
36378;BME280;22402;42.746;23.606;2023-03-23T17:31:33;93448.91;;;10.66;75.71
36378;BME280;22402;42.746;23.606;2023-03-23T17:33:58;93445.75;;;10.62;75.68
36378;BME280;22402;42.746;23.606;2023-03-23T17:36:23;93453.88;;;10.59;76.00
36378;BME280;22402;42.746;23.606;2023-03-23T17:38:49;93449.91;;;10.55;75.48
36378;BME280;22402;42.746;23.606;2023-03-23T17:41:14;93458.81;;;10.53;75.77
36378;BME280;22402;42.746;23.606;2023-03-23T17:43:39;93460.91;;;10.49;75.97
36378;BME280;22402;42.746;23.606;2023-03-23T17:46:05;93467.38;;;10.45;76.35
36378;BME280;22402;42.746;23.606;2023-03-23T17:48:31;93468.47;;;10.42;76.22
36378;BME280;22402;42.746;23.606;2023-03-23T17:50:56;93466.00;;;10.41;76.59
36378;BME280;22402;42.746;23.606;2023-03-23T17:53:23;93467.13;;;10.38;75.58
36378;BME280;22402;42.746;23.606;2023-03-23T17:55:48;93473.44;;;10.36;76.44
36378;BME280;22402;42.746;23.606;2023-03-23T17:58:14;93474.66;;;10.32;76.01
36378;BME280;22402;42.746;23.606;2023-03-23T18:00:39;93482.94;;;10.27;76.35
36378;BME280;22402;42.746;23.606;2023-03-23T18:03:04;93490.19;;;10.23;75.98
36378;BME280;22402;42.746;23.606;2023-03-23T18:05:30;93487.88;;;10.20;76.01
36378;BME280;22402;42.746;23.606;2023-03-23T18:07:55;93482.09;;;10.17;76.62
36378;BME280;22402;42.746;23.606;2023-03-23T18:10:20;93489.38;;;10.13;76.83
36378;BME280;22402;42.746;23.606;2023-03-23T18:12:47;93497.47;;;10.10;76.04
36378;BME280;22402;42.746;23.606;2023-03-23T18:15:12;93512.69;;;10.05;76.53
36378;BME280;22402;42.746;23.606;2023-03-23T18:17:38;93499.28;;;10.00;76.54
36378;BME280;22402;42.746;23.606;2023-03-23T18:20:04;93501.06;;;9.90;77.56
36378;BME280;22402;42.746;23.606;2023-03-23T18:22:29;93504.50;;;9.80;77.99
36378;BME280;22402;42.746;23.606;2023-03-23T18:24:55;93504.34;;;9.72;78.19
36378;BME280;22402;42.746;23.606;2023-03-23T18:27:20;93510.38;;;9.63;78.37
36378;BME280;22402;42.746;23.606;2023-03-23T18:29:45;93518.63;;;9.58;79.00
36378;BME280;22402;42.746;23.606;2023-03-23T18:32:11;93518.84;;;9.36;79.40
36378;BME280;22402;42.746;23.606;2023-03-23T18:34:38;93522.53;;;9.24;79.71
36378;BME280;22402;42.746;23.606;2023-03-23T18:37:04;93526.50;;;9.18;79.12
36378;BME280;22402;42.746;23.606;2023-03-23T18:39:30;93529.25;;;9.17;78.37
36378;BME280;22402;42.746;23.606;2023-03-23T18:41:56;93531.69;;;9.18;78.21
36378;BME280;22402;42.746;23.606;2023-03-23T18:44:21;93529.38;;;9.15;79.21
36378;BME280;22402;42.746;23.606;2023-03-23T18:46:46;93535.38;;;9.16;79.46
36378;BME280;22402;42.746;23.606;2023-03-23T18:49:11;93538.13;;;9.14;79.72
36378;BME280;22402;42.746;23.606;2023-03-23T18:51:37;93537.59;;;9.10;80.42
36378;BME280;22402;42.746;23.606;2023-03-23T18:54:02;93546.47;;;9.08;81.11
36378;BME280;22402;42.746;23.606;2023-03-23T18:56:27;93541.94;;;9.10;81.52
36378;BME280;22402;42.746;23.606;2023-03-23T18:58:52;93548.00;;;9.10;81.37
36378;BME280;22402;42.746;23.606;2023-03-23T19:01:18;93544.41;;;9.11;81.96
36378;BME280;22402;42.746;23.606;2023-03-23T19:03:43;93543.34;;;9.14;81.89
36378;BME280;22402;42.746;23.606;2023-03-23T19:06:13;93550.31;;;9.13;82.04
36378;BME280;22402;42.746;23.606;2023-03-23T19:08:38;93552.66;;;9.17;82.51
36378;BME280;22402;42.746;23.606;2023-03-23T19:11:04;93563.06;;;9.17;83.39
36378;BME280;22402;42.746;23.606;2023-03-23T19:13:29;93554.69;;;9.13;82.61
36378;BME280;22402;42.746;23.606;2023-03-23T19:39:06;93569.88;;;8.77;86.33
36378;BME280;22402;42.746;23.606;2023-03-23T19:41:32;93573.59;;;8.75;87.01
36378;BME280;22402;42.746;23.606;2023-03-23T19:43:57;93576.31;;;8.73;86.11
36378;BME280;22402;42.746;23.606;2023-03-23T19:46:23;93567.94;;;8.70;87.01
36378;BME280;22402;42.746;23.606;2023-03-23T19:48:48;93584.38;;;8.70;88.09
36378;BME280;22402;42.746;23.606;2023-03-23T19:51:14;93583.66;;;8.68;88.44
36378;BME280;22402;42.746;23.606;2023-03-23T19:53:41;93574.13;;;8.69;88.56
36378;BME280;22402;42.746;23.606;2023-03-23T19:56:10;93581.22;;;8.66;87.95
36378;BME280;22402;42.746;23.606;2023-03-23T19:58:36;93585.00;;;8.62;88.31
36378;BME280;22402;42.746;23.606;2023-03-23T20:01:01;93589.53;;;8.60;88.17
36378;BME280;22402;42.746;23.606;2023-03-23T20:03:26;93597.56;;;8.57;89.22
36378;BME280;22402;42.746;23.606;2023-03-23T20:05:57;93598.66;;;8.55;88.73
36378;BME280;22402;42.746;23.606;2023-03-23T20:08:23;93593.97;;;8.49;88.67
36378;BME280;22402;42.746;23.606;2023-03-23T20:10:48;93598.59;;;8.45;89.43
36378;BME280;22402;42.746;23.606;2023-03-23T20:13:13;93602.94;;;8.44;89.42
36378;BME280;22402;42.746;23.606;2023-03-23T20:15:38;93608.41;;;8.41;90.32
36378;BME280;22402;42.746;23.606;2023-03-23T20:18:04;93597.34;;;8.39;90.28
36378;BME280;22402;42.746;23.606;2023-03-23T20:20:29;93597.56;;;8.36;90.21
36378;BME280;22402;42.746;23.606;2023-03-23T20:22:54;93597.81;;;8.33;90.68
36378;BME280;22402;42.746;23.606;2023-03-23T20:25:19;93597.81;;;8.33;91.42
36378;BME280;22402;42.746;23.606;2023-03-23T21:15:08;93597.97;;;7.99;94.70
36378;BME280;22402;42.746;23.606;2023-03-23T21:17:33;93597.53;;;7.94;94.74
36378;BME280;22402;42.746;23.606;2023-03-23T21:19:59;93601.22;;;7.92;95.02
36378;BME280;22402;42.746;23.606;2023-03-23T21:22:24;93597.19;;;7.88;95.57
36378;BME280;22402;42.746;23.606;2023-03-23T21:24:49;93606.06;;;7.85;95.81
36378;BME280;22402;42.746;23.606;2023-03-23T21:27:14;93595.91;;;7.82;96.17
36378;BME280;22402;42.746;23.606;2023-03-23T21:29:40;93602.19;;;7.80;96.48
36378;BME280;22402;42.746;23.606;2023-03-23T21:32:05;93595.59;;;7.75;96.86
36378;BME280;22402;42.746;23.606;2023-03-23T21:34:30;93600.91;;;7.74;96.77
36378;BME280;22402;42.746;23.606;2023-03-23T21:36:55;93605.66;;;7.69;97.31
36378;BME280;22402;42.746;23.606;2023-03-23T21:39:21;93592.91;;;7.66;97.87
36378;BME280;22402;42.746;23.606;2023-03-23T21:41:46;93598.34;;;7.63;98.02
36378;BME280;22402;42.746;23.606;2023-03-23T21:44:11;93594.13;;;7.62;97.96
36378;BME280;22402;42.746;23.606;2023-03-23T21:46:37;93596.00;;;7.60;98.49
36378;BME280;22402;42.746;23.606;2023-03-23T21:49:02;93595.44;;;7.56;98.27
36378;BME280;22402;42.746;23.606;2023-03-23T21:51:27;93599.19;;;7.52;98.32
36378;BME280;22402;42.746;23.606;2023-03-23T21:53:53;93592.72;;;7.46;98.99
36378;BME280;22402;42.746;23.606;2023-03-23T21:56:19;93589.31;;;7.46;98.89
36378;BME280;22402;42.746;23.606;2023-03-23T21:58:45;93602.53;;;7.43;99.38
36378;BME280;22402;42.746;23.606;2023-03-23T22:01:10;93597.72;;;7.38;99.39
36378;BME280;22402;42.746;23.606;2023-03-23T22:03:36;93592.78;;;7.35;98.72
36378;BME280;22402;42.746;23.606;2023-03-23T22:06:06;93591.34;;;7.31;98.81
36378;BME280;22402;42.746;23.606;2023-03-23T22:08:31;93586.53;;;7.26;99.18
36378;BME280;22402;42.746;23.606;2023-03-23T22:11:04;93597.03;;;7.25;99.34
36378;BME280;22402;42.746;23.606;2023-03-23T22:13:31;93595.63;;;7.21;99.53
36378;BME280;22402;42.746;23.606;2023-03-23T22:15:57;93596.69;;;7.18;99.75
36378;BME280;22402;42.746;23.606;2023-03-23T22:18:23;93596.09;;;7.15;100.00
36378;BME280;22402;42.746;23.606;2023-03-23T22:20:48;93600.00;;;7.09;99.85
36378;BME280;22402;42.746;23.606;2023-03-23T22:23:13;93595.41;;;7.01;99.98
36378;BME280;22402;42.746;23.606;2023-03-23T22:25:38;93597.66;;;6.95;99.96
